Latest Weather Observations for Maningrida Airport

IDD60801

Issued at 11:31 pm CST Tuesday 26 July 2016 (issued every 30 minutes, with the page automatically refreshed every 10 minutes)

About weather observations | Map of weather stations | Latest weather observations for NT | Other Formats
Station Details ID: 014405 Name: MANINGRIDA AIRPORT Lat: -12.06 Lon: 134.23 Height: 28.1 m
Data from the previous 72 hours. | See also: Recent months at Maningrida Airport
Date/Time
CST
Temp
°C
App
Temp
°C
Dew
Point
°C
Rel
Hum
%
Delta-T
°C
Wind Press
QNH
hPa
Press
MSL
hPa
Rain since
9am
mm
Dir  Spd
km/h
Gust
km/h
Spd
kts
Gust
kts
26/11:30pm 24.4 22.8 16.6 61 4.8 ESE 20 28 11 15 1013.7 1013.5 0.0
26/11:00pm 24.4 22.9 16.4 61 4.9 ESE 19 24 10 13 1013.7 1013.5 0.0
26/10:30pm 24.8 23.9 16.8 61 4.9 ESE 17 24 9 13 1013.5 1013.3 0.0
26/10:00pm 24.8 24.9 18.3 67 4.1 ESE 15 19 8 10 1013.4 1013.2 0.0
26/09:30pm 24.4 26.3 20.5 79 2.5 ESE 11 15 6 8 1012.9 1012.7 0.0
26/09:00pm 24.7 27.2 21.0 80 2.4 E 9 11 5 6 1012.6 1012.4 0.0
26/08:30pm 25.2 27.6 20.9 77 2.8 E 9 13 5 7 1012.2 1012.0 0.0
26/08:00pm 25.5 27.7 20.5 74 3.3 E 9 15 5 8 1012.0 1011.8 0.0
26/07:30pm 25.7 27.9 20.3 72 3.5 E 9 15 5 8 1011.5 1011.3 0.0
26/07:00pm 26.2 27.4 19.8 68 4.2 E 13 19 7 10 1011.0 1010.9 0.0
26/06:30pm 26.6 27.5 19.2 64 4.8 ENE 13 20 7 11 1010.6 1010.5 0.0
26/06:00pm 27.2 27.4 18.5 59 5.6 ENE 15 22 8 12 1010.2 1010.1 0.0
26/05:30pm 27.9 28.0 18.3 56 6.1 ENE 15 20 8 11 1010.0 1009.9 0.0
26/05:00pm 28.6 28.4 18.4 54 6.5 ENE 17 24 9 13 1009.8 1009.7 0.0
26/04:30pm 29.7 29.0 18.2 50 7.4 NE 19 26 10 14 1009.7 1009.6 0.0
26/04:00pm 30.1 29.0 17.2 46 8.2 NE 19 24 10 13 1009.8 1009.7 0.0
26/03:30pm 30.7 29.3 17.0 43 8.7 NE 20 28 11 15 1009.8 1009.7 0.0
26/03:00pm 32.6 30.6 13.8 32 11.4 E 17 24 9 13 1009.9 1009.8 0.0
26/02:30pm 32.2 30.6 13.9 33 11.1 ESE 15 28 8 15 1010.3 1010.2 0.0
26/02:00pm 31.4 28.8 15.0 37 10.1 SE 22 30 12 16 1010.7 1010.6 0.0
26/01:30pm 31.4 29.5 15.8 39 9.7 SSE 20 30 11 16 1011.1 1011.0 0.0
26/01:00pm 31.9 29.7 15.0 36 10.4 ESE 20 28 11 15 1011.7 1011.5 0.0
26/12:30pm 31.3 28.6 15.7 39 9.7 ESE 24 41 13 22 1012.1 1011.9 0.0
26/12:00pm 30.6 28.7 16.6 43 8.8 E 22 35 12 19 1012.7 1012.5 0.0
26/11:30am 29.7 27.8 16.8 45 8.1 ESE 22 39 12 21 1013.1 1012.9 0.0
26/11:00am 28.9 27.0 16.8 48 7.6 ESE 22 33 12 18 1013.7 1013.5 0.0
26/10:30am 27.9 26.8 17.7 53 6.5 SSE 20 30 11 16 1013.9 1013.7 0.0
26/10:00am 27.4 26.5 18.1 57 5.9 SE 20 28 11 15 1014.1 1013.9 0.0
26/09:30am 25.8 24.9 18.2 63 4.8 SSE 20 30 11 16 1014.2 1014.0 0.0
26/09:00am 24.1 22.4 18.1 69 3.8 SSE 24 33 13 18 1014.0 1013.8 0.0
26/08:30am 22.8 21.6 18.3 76 2.8 SSE 22 35 12 19 1013.8 1013.6 0.0
26/08:00am 21.3 20.5 17.9 81 2.1 SSE 19 28 10 15 1013.6 1013.4 0.0
26/07:30am 20.0 19.6 17.2 84 1.7 SSE 15 22 8 12 1013.4 1013.2 0.0
26/07:00am 19.3 19.3 17.3 88 1.2 SSE 13 19 7 10 1012.9 1012.7 0.0
26/06:30am 19.7 20.2 17.5 87 1.3 S 11 17 6 9 1012.5 1012.3 0.0
26/06:00am 19.9 20.3 17.3 85 1.6 SSE 11 17 6 9 1012.4 1012.2 0.0
26/05:30am 20.1 20.9 18.1 88 1.2 SSE 11 19 6 10 1012.3 1012.1 0.0
26/05:00am 20.3 20.5 17.7 85 1.6 SSE 13 17 7 9 1012.4 1012.2 0.0
26/04:30am 20.1 19.9 16.7 81 2.1 SE 13 15 7 8 1012.2 1012.0 0.0
26/04:00am 21.1 21.0 16.9 77 2.6 ESE 13 15 7 8 1012.3 1012.1 0.0
26/03:30am 21.4 21.6 16.8 75 2.8 ESE 11 15 6 8 1012.3 1012.1 0.0
26/03:00am 21.1 21.5 16.3 74 2.9 SE 9 11 5 6 1012.4 1012.2 0.0
26/02:30am 21.4 21.5 16.4 73 3.0 SE 11 15 6 8 1012.5 1012.3 0.0
26/02:00am 21.5 21.4 16.0 71 3.3 SE 11 13 6 7 1012.6 1012.4 0.0
26/01:30am 21.8 21.6 15.6 68 3.7 SE 11 13 6 7 1012.8 1012.6 0.0
26/01:00am 23.2 22.7 15.8 63 4.5 SE 13 17 7 9 1012.9 1012.7 0.0
26/12:30am 23.1 23.0 15.9 64 4.4 SE 11 17 6 9 1012.9 1012.7 0.0
26/12:00am 23.2 22.9 15.5 62 4.6 SE 11 15 6 8 1013.0 1012.8 0.0
 
Date/Time
CST
Temp
°C
App
Temp
°C
Dew
Point
°C
Rel
Hum
%
Delta-T
°C
Wind Press
QNH
hPa
Press
MSL
hPa
Rain since
9am
mm
Dir  Spd
km/h
Gust
km/h
Spd
kts
Gust
kts
25/11:30pm 24.0 23.5 15.8 60 5.0 SSE 13 19 7 10 1013.0 1012.8 0.0
25/11:00pm 24.2 24.0 15.7 59 5.1 SSE 11 13 6 7 1013.1 1012.9 0.0
25/10:30pm 25.3 24.3 15.6 55 5.9 SE 15 20 8 11 1013.0 1012.8 0.0
25/10:00pm 25.5 24.5 16.6 58 5.5 SE 17 22 9 12 1012.9 1012.7 0.0
25/09:30pm 25.1 26.1 19.5 71 3.6 SE 13 20 7 11 1012.9 1012.7 0.0
25/09:00pm 24.8 27.5 22.1 85 1.8 ESE 11 17 6 9 1012.5 1012.3 0.0
25/08:30pm 25.0 27.9 22.5 86 1.7 E 11 15 6 8 1012.1 1011.9 0.0
25/08:00pm 25.1 28.3 22.4 85 1.8 ESE 9 13 5 7 1011.7 1011.5 0.0
25/07:30pm 25.4 28.6 22.3 83 2.1 E 9 15 5 8 1011.3 1011.1 0.0
25/07:00pm 25.6 27.9 22.1 81 2.3 E 13 17 7 9 1010.8 1010.7 0.0
25/06:30pm 26.1 28.2 21.7 77 2.9 ENE 13 20 7 11 1010.4 1010.3 0.0
25/06:00pm 27.0 28.4 21.1 70 3.9 ENE 15 20 8 11 1010.0 1009.9 0.0
25/05:30pm 27.7 29.0 20.8 66 4.6 ENE 15 22 8 12 1009.9 1009.8 0.0
25/05:00pm 28.4 28.4 20.2 61 5.4 ENE 20 28 11 15 1009.8 1009.7 0.0
25/04:30pm 28.6 28.2 19.0 56 6.2 ENE 19 28 10 15 1009.7 1009.6 0.0
25/04:00pm 29.4 29.5 19.1 54 6.7 ENE 17 22 9 12 1009.8 1009.7 0.0
25/03:30pm 29.2 29.3 19.2 54 6.5 NE 17 24 9 13 1010.1 1010.0 0.0
25/03:00pm 28.6 29.4 19.8 59 5.8 NNE 15 20 8 11 1010.4 1010.3 0.0
25/02:30pm 28.1 28.8 19.6 60 5.5 NNE 15 20 8 11 1010.5 1010.4 0.0
25/02:00pm 28.2 28.5 20.7 63 5.0 N 20 24 11 13 1010.7 1010.6 0.0
25/01:30pm 29.9 28.8 17.4 47 7.9 ENE 19 24 10 13 1011.3 1011.1 0.0
25/01:00pm 30.5 28.7 16.1 41 9.0 E 20 32 11 17 1011.7 1011.5 0.0
25/12:30pm 31.1 27.8 15.1 38 9.9 ESE 26 35 14 19 1012.1 1011.9 0.0
25/12:00pm 31.9 30.2 16.2 38 9.9 ESE 20 41 11 22 1012.4 1012.2 0.0
25/11:30am 30.8 28.2 16.0 40 9.2 ESE 24 33 13 18 1012.9 1012.7 0.0
25/11:00am 30.2 28.6 16.6 44 8.5 ESE 20 32 11 17 1013.2 1013.0 0.0
25/10:30am 28.8 27.7 17.7 51 7.0 SE 20 30 11 16 1013.4 1013.2 0.0
25/10:00am 27.5 26.3 17.4 54 6.4 SE 20 28 11 15 1013.4 1013.2 0.0
25/09:30am 27.0 25.5 17.8 57 5.8 SE 22 32 12 17 1013.4 1013.2 0.0
25/09:00am 25.8 24.6 17.4 59 5.3 SE 20 28 11 15 1013.3 1013.1 0.0
25/08:30am 24.6 24.3 18.3 68 4.0 SSE 17 22 9 12 1013.2 1013.0 0.0
25/08:00am 22.4 23.2 19.0 81 2.2 SSE 13 17 7 9 1013.1 1012.9 0.0
25/07:30am 19.6 20.7 18.8 95 0.5 SSE 11 13 6 7 1013.0 1012.8 0.0
25/07:00am 18.2 19.1 17.6 96 0.4 SSE 9 9 5 5 1012.7 1012.5 0.0
25/06:30am 18.2 19.1 17.6 96 0.4 S 9 11 5 6 1012.5 1012.3 0.0
25/06:03am 18.0 19.2 17.4 96 0.4 SSE 7 9 4 5 1012.1 1011.9 0.0
25/06:00am 17.9 19.0 17.1 95 0.5 SSE 7 9 4 5 1012.2 1012.0 0.0
25/05:30am 18.4 19.9 17.6 95 0.5 SSE 6 7 3 4 1011.8 1011.6 0.0
25/05:00am 18.5 21.0 17.3 93 0.7 CALM 0 4 0 2 1011.5 1011.3 0.0
25/04:30am 19.1 20.4 17.2 89 1.2 SSE 6 7 3 4 1011.1 1011.0 0.0
25/04:00am 20.6 22.3 18.5 88 1.3 SSE 7 9 4 5 1011.1 1011.0 0.0
25/03:30am 20.5 21.5 18.6 89 1.2 SSE 11 13 6 7 1011.1 1011.0 0.0
25/03:00am 20.7 22.4 18.6 88 1.3 SSE 7 9 4 5 1011.5 1011.3 0.0
25/02:30am 20.8 22.5 18.6 87 1.4 S 7 9 4 5 1011.9 1011.7 0.0
25/02:00am 21.2 22.9 18.6 85 1.6 SSE 7 9 4 5 1011.9 1011.7 0.0
25/01:30am 22.2 23.8 19.2 83 1.9 S 9 11 5 6 1012.1 1011.9 0.0
25/01:00am 22.5 24.1 19.1 81 2.2 SSE 9 11 5 6 1012.3 1012.1 0.0
25/12:30am 22.8 24.6 19.6 82 2.0 SE 9 11 5 6 1012.3 1012.1 0.0
25/12:00am 23.0 24.7 20.1 84 1.9 ESE 11 13 6 7 1012.3 1012.1 0.0
 
Date/Time
CST
Temp
°C
App
Temp
°C
Dew
Point
°C
Rel
Hum
%
Delta-T
°C
Wind Press
QNH
hPa
Press
MSL
hPa
Rain since
9am
mm
Dir  Spd
km/h
Gust
km/h
Spd
kts
Gust
kts
24/11:30pm 23.7 26.1 20.8 84 1.9 ESE 9 13 5 7 1012.3 1012.1 0.0
24/11:00pm 23.8 26.3 21.7 88 1.4 ESE 11 15 6 8 1012.7 1012.5 0.0
24/10:30pm 23.9 27.5 22.3 91 1.1 SSE 7 9 4 5 1012.9 1012.7 0.0
24/10:00pm 24.3 27.9 22.4 89 1.3 SE 7 9 4 5 1013.0 1012.8 0.0
24/09:30pm 24.7 28.4 22.6 88 1.4 ESE 7 9 4 5 1012.7 1012.5 0.0
24/09:00pm 25.1 29.0 22.6 86 1.7 ESE 6 9 3 5 1012.4 1012.2 0.0
24/08:30pm 25.3 28.8 22.2 83 2.1 E 7 13 4 7 1012.1 1011.9 0.0
24/08:00pm 25.7 28.3 22.0 80 2.5 E 11 17 6 9 1011.7 1011.5 0.0
24/07:30pm 26.0 28.1 21.7 77 2.9 ENE 13 19 7 10 1011.1 1011.0 0.0
24/07:00pm 26.5 28.3 20.3 68 4.1 E 11 17 6 9 1010.7 1010.6 0.0
24/06:30pm 26.9 28.1 20.0 66 4.5 ENE 13 17 7 9 1010.3 1010.2 0.0
24/06:00pm 27.8 28.9 19.6 61 5.3 ENE 13 19 7 10 1010.1 1010.0 0.0
24/05:30pm 28.9 29.5 19.5 57 6.1 ENE 15 22 8 12 1010.0 1009.9 0.0
24/05:00pm 29.0 29.0 19.0 54 6.5 ENE 17 24 9 13 1009.9 1009.8 0.0
24/04:30pm 29.6 29.4 19.3 54 6.7 NE 19 28 10 15 1009.8 1009.7 0.0
24/04:00pm 30.3 29.8 18.7 50 7.5 ENE 19 26 10 14 1009.6 1009.5 0.0
24/03:30pm 30.2 29.6 18.9 50 7.3 ENE 20 32 11 17 1009.7 1009.6 0.0
24/03:00pm 30.6 30.2 19.0 50 7.6 ENE 19 28 10 15 1009.9 1009.8 0.0
24/02:30pm 30.8 30.2 18.8 48 7.8 ENE 20 32 11 17 1010.4 1010.3 0.0
24/02:00pm 30.5 29.2 18.2 47 7.9 NE 22 33 12 18 1010.8 1010.7 0.0
24/01:30pm 30.3 28.8 17.7 46 8.0 ENE 22 32 12 17 1011.7 1011.5 0.0
24/01:00pm 30.3 29.4 18.1 48 7.8 ENE 20 33 11 18 1012.2 1012.0 0.0
24/12:30pm 30.8 29.8 18.8 48 7.8 ENE 22 32 12 17 1012.5 1012.3 0.0
24/12:00pm 29.9 29.4 19.0 52 7.1 E 20 32 11 17 1013.0 1012.8 0.0
24/11:30am 30.1 29.2 18.2 49 7.6 ENE 20 30 11 16 1013.2 1013.0 0.0
24/11:00am 30.9 29.9 17.6 45 8.5 E 19 28 10 15 1013.2 1013.0 0.0
24/10:30am 30.0 29.5 17.8 48 7.8 ESE 17 24 9 13 1013.3 1013.1 0.0
24/10:00am 29.6 29.2 18.1 50 7.4 ESE 17 26 9 14 1013.3 1013.1 0.0
24/09:30am 28.0 27.9 18.7 57 6.0 SE 17 26 9 14 1013.3 1013.1 0.0
24/09:00am 27.3 27.7 19.9 64 4.8 SE 17 22 9 12 1013.2 1013.0 0.0
24/08:30am 24.5 26.8 20.6 79 2.5 S 9 13 5 7 1013.0 1012.8 0.0
24/08:00am 23.2 25.4 20.3 84 1.9 SSW 9 13 5 7 1012.7 1012.5 0.0
24/07:30am 22.3 24.4 20.2 88 1.4 S 9 11 5 6 1012.3 1012.1 0.0
24/07:00am 22.1 24.3 20.4 90 1.1 S 9 11 5 6 1012.0 1011.8 0.0
24/06:30am 22.4 24.4 20.7 90 1.1 SSE 11 15 6 8 1011.7 1011.5 0.0
24/06:00am 22.3 24.3 20.8 91 1.0 SSE 11 15 6 8 1011.4 1011.2 0.0
24/05:30am 22.0 23.9 20.6 92 0.9 SSE 11 15 6 8 1011.3 1011.1 0.0
24/05:00am 21.7 24.4 20.7 94 0.6 S 7 9 4 5 1011.1 1011.0 0.0
24/04:30am 21.8 24.6 20.8 94 0.7 S 7 9 4 5 1011.0 1010.9 0.0
24/04:00am 21.7 24.6 20.7 94 0.6 S 6 7 3 4 1010.9 1010.8 0.0
24/03:30am 22.0 24.9 21.0 94 0.7 SSW 7 13 4 7 1011.0 1010.9 0.0
24/03:00am 22.2 24.8 21.2 94 0.7 SSW 9 13 5 7 1010.9 1010.8 0.0
24/02:30am 22.4 25.4 21.2 93 0.8 SSW 7 11 4 6 1010.9 1010.8 0.0
24/02:00am 23.1 26.1 21.2 89 1.2 ESE 7 9 4 5 1010.9 1010.8 0.0
24/01:30am 23.4 26.7 21.8 91 1.1 ESE 7 13 4 7 1011.1 1011.0 0.0
24/01:00am 23.5 26.7 22.3 93 0.8 ESE 9 13 5 7 1011.4 1011.2 0.0
24/12:30am 23.7 27.7 22.7 94 0.7 SE 6 7 3 4 1011.5 1011.3 0.0
24/12:00am 24.0 27.9 23.0 94 0.7 ESE 7 9 4 5 1011.6 1011.4 0.0

Other Formats:

Comma delimited format used in spreadsheet applications
http://www.bom.gov.au/fwo/IDD60801/IDD60801.95142.axf

JavaScript Object Notation format (JSON) in row-major order
http://www.bom.gov.au/fwo/IDD60801/IDD60801.95142.json